This is the latest recevied weather packets stored in our database for station/object EA4IAJ-12. If no packets are shown the sender has not sent any weather packets the latest 10 day(s).
| Time | Temp. | Humidity | Pressure | Rain* | Wind** | Luminosity | Snow |
|---|---|---|---|---|---|---|---|
| 1788077198 | 28.33° C | 93% | 1052 hPa | - | - | - | - |
| 1788075396 | 17.78° C | 88% | 1010.7 hPa | - | - | - | - |
| 1788073595 | 15° C | 83% | 999.7 hPa | - | - | - | - |
| 1788071793 | 14.44° C | 79% | 995.7 hPa | - | - | - | - |
| 1788070903 | 13.33° C | 75% | 992.2 hPa | - | - | - | - |
| 1788069992 | 12.22° C | 71% | 987.9 hPa | - | - | - | - |
| 1788069092 | 12.22° C | 68% | 987.6 hPa | - | - | - | - |
| 1788068192 | 12.22° C | 65% | 987.5 hPa | - | - | - | - |
| 1788067291 | 12.22° C | 62% | 987.7 hPa | - | - | - | - |
| 1788066390 | 12.22° C | 59% | 986.7 hPa | - | - | - | - |
| 1788065490 | 12.22° C | 57% | 987.4 hPa | - | - | - | - |
| 1788064591 | 12.78° C | 55% | 988.4 hPa | - | - | - | - |
| 1788063689 | 12.78° C | 54% | 988.6 hPa | - | - | - | - |
| 1788062788 | 13.33° C | 52% | 989.9 hPa | - | - | - | - |
| 1788061910 | 13.33° C | 50% | 989.3 hPa | - | - | - | - |
| 1788060999 | 12.78° C | 48% | 988.1 hPa | - | - | - | - |
| 1788059234 | 13.89° C | 46% | 990 hPa | - | - | - | - |
| 1788059198 | 13.89° C | 46% | 990 hPa | - | - | - | - |
| 1788058298 | 13.89° C | 45% | 991.2 hPa | - | - | - | - |
| 1788056497 | 15° C | 43% | 994.1 hPa | - | - | - | - |
| 1788054695 | 15° C | 42% | 993.9 hPa | - | - | - | - |
| 1788053795 | 14.44° C | 41% | 992 hPa | - | - | - | - |
| 1788051994 | 15° C | 39% | 992.6 hPa | - | - | - | - |
| 1788050193 | 15.56° C | 38% | 994.4 hPa | - | - | - | - |
| 1788046591 | 16.67° C | 35% | 997 hPa | - | - | - | - |
* Rain since midnight (hover to see other rain measurements)
** Current wind speed in m/s (hover to see current wind gust speed)